Flight Track Log - Related Links

Times and Time Zones

All times are in EDT time to prevent confusion due to time zone crossing. See the N910WW flight status page for this flight to view local times or setup timezone preferences in your user account.

Time Position Orientation Groundspeed Altitude Reporting Facility
EDT Latitude Longitude Course Direction KTS MPH feet Rate Location/Type
Thu 10:05:59 AM 29.6972 -82.2661 54° Northeast 111 128 700  Level Jacksonville Center
Thu 10:07:18 AM 29.7200 -82.2300 54° Northeast 119 137 2,200 1,071 Climbing Jacksonville Center
Thu 10:08:19 AM 29.7617 -82.2322 357° North 157 181 3,200 938 Climbing Jacksonville Center
Thu 10:09:26 AM 29.8097 -82.2342 358° North 151 174 4,200 873 Climbing Jacksonville Center
Thu 10:10:09 AM 29.8389 -82.2342 360° North 152 175 4,800 787 Climbing Jacksonville Center
Thu 10:11:28 AM 29.8889 -82.2194 14° North 142 163 5,800 771 Climbing Jacksonville Center
Thu 10:12:29 AM 29.9286 -82.2000 23° Northeast 144 166 6,600 828 Climbing Jacksonville Center
Thu 10:13:24 AM 29.9597 -82.1781 31° Northeast 143 165 7,400 787 Climbing Jacksonville Center
Thu 10:14:31 AM 29.9950 -82.1514 33° Northeast 148 170 8,200 724 Climbing Jacksonville Center
Thu 10:15:20 AM 30.0242 -82.1272 36° Northeast 147 169 8,800 672 Climbing Jacksonville Center
Thu 10:16:27 AM 30.0617 -82.0981 34° Northeast 146 168 9,500 639 Climbing Jacksonville Center
Thu 10:17:22 AM 30.0928 -82.0714 37° Northeast 144 166 10,100 639 Climbing Jacksonville Center
Thu 10:18:29 AM 30.1342 -82.0519 22° Northeast 151 174 10,800 609 Climbing Jacksonville Center
Thu 10:19:30 AM 30.1717 -82.0347 22° Northeast 145 167 11,400 590 Climbing Jacksonville Center
Thu 10:20:31 AM 30.2092 -82.0153 24° Northeast 149 171 12,000 466 Climbing Jacksonville Center
Thu 10:21:26 AM 30.2425 -82.0031 18° North 148 170 12,300 393 Climbing Jacksonville Center
Thu 10:21:32 AM 30.2486 -81.9956 47° Northeast 152 175 12,400 537 Climbing Jacksonville Center
Thu 10:22:33 AM 30.2903 -81.9761 22° Northeast 155 178 12,900 474 Climbing Jacksonville Center
Thu 10:23:26 AM 30.3194 -81.9636 20° North 160 184 13,300 429 Climbing Jacksonville Center
Thu 10:24:25 AM 30.3589 -81.9442 23° Northeast 160 184 13,700 454 Climbing Jacksonville Center
Thu 10:25:25 AM 30.3986 -81.9244 23° Northeast 160 184 14,200 450 Climbing Jacksonville Center
Thu 10:26:25 AM 30.4381 -81.9022 26° Northeast 154 177 14,600 450 Climbing Jacksonville Center
Thu 10:27:25 AM 30.4797 -81.8825 22° Northeast 154 177 15,100 450 Climbing Jacksonville Center
Thu 10:28:25 AM 30.5192 -81.8628 23° Northeast 154 177 15,500 397 Climbing Jacksonville Center
Thu 10:29:26 AM 30.5544 -81.8408 28° Northeast 154 177 15,900 397 Climbing Jacksonville Center
Thu 10:30:26 AM 30.5942 -81.8258 18° North 149 171 16,300 350 Climbing Jacksonville Center
Thu 10:31:26 AM 30.6336 -81.8086 21° North 149 171 16,600 303 Climbing Jacksonville Center
Thu 10:32:25 AM 30.6753 -81.7886 22° Northeast 149 171 16,900 252 Climbing Jacksonville Center
Thu 10:33:25 AM 30.7125 -81.7667 27° Northeast 149 171 17,100 99 Climbing Jacksonville Center
Thu 10:34:26 AM 30.7542 -81.7444 25° Northeast 155 178 17,100  Level Jacksonville Center
Thu 10:35:25 AM 30.7978 -81.7172 28° Northeast 160 184 17,100  Level Jacksonville Center
Thu 10:36:25 AM 30.8433 -81.6900 27° Northeast 166 191 17,100  Level Jacksonville Center
Thu 10:37:25 AM 30.8869 -81.6653 26° Northeast 171 197 17,100  Level Jacksonville Center
Thu 10:38:25 AM 30.9306 -81.6381 28° Northeast 171 197 17,100  Level Jacksonville Center
Thu 10:39:25 AM 30.9742 -81.6108 28° Northeast 171 197 17,100  Level Jacksonville Center
Thu 10:40:25 AM 31.0178 -81.5883 24° Northeast 171 197 17,100  Level Jacksonville Center
Thu 10:41:26 AM 31.0633 -81.5636 25° Northeast 171 197 17,100  Level Jacksonville Center
Thu 10:42:26 AM 31.1050 -81.5361 29° Northeast 171 197 17,100  Level Jacksonville Center
Thu 10:43:25 AM 31.1486 -81.5139 24° Northeast 171 197 17,100  Level Jacksonville Center
Thu 10:44:25 AM 31.1919 -81.4839 31° Northeast 171 197 17,100  Level Jacksonville Center
Thu 10:45:25 AM 31.2336 -81.4592 27° Northeast 176 203 17,100  Level Jacksonville Center
Thu 10:46:26 AM 31.2792 -81.4342 25° Northeast 176 203 17,100  Level Jacksonville Center
Thu 10:47:26 AM 31.3206 -81.4092 27° Northeast 176 203 17,100  Level Jacksonville Center
Thu 10:48:26 AM 31.3600 -81.3817 31° Northeast 176 203 17,100  Level Jacksonville Center
Thu 10:49:25 AM 31.4078 -81.3542 26° Northeast 176 203 17,100  Level Jacksonville Center
Thu 10:50:25 AM 31.4511 -81.3292 26° Northeast 176 203 17,100  Level Jacksonville Center
Thu 10:51:26 AM 31.4906 -81.3089 24° Northeast 171 197 17,100  Level Jacksonville Center
Thu 10:52:25 AM 31.5403 -81.2836 23° Northeast 171 197 17,100  Level Jacksonville Center
Thu 10:53:25 AM 31.5861 -81.2633 21° North 171 197 17,100  Level Jacksonville Center
Thu 10:54:26 AM 31.6275 -81.2431 23° Northeast 171 197 17,100  Level Jacksonville Center
Thu 10:55:25 AM 31.6794 -81.2178 22° Northeast 171 197 17,100  Level Jacksonville Center
Thu 10:56:25 AM 31.7208 -81.1950 25° Northeast 171 197 17,100  Level Jacksonville Center
Thu 10:57:25 AM 31.7708 -81.1722 21° North 171 197 17,100  Level Jacksonville Center
Thu 10:58:25 AM 31.8206 -81.1492 22° Northeast 171 197 17,100 -50 Level Jacksonville Center
Thu 10:59:25 AM 31.8600 -81.1289 24° Northeast 176 203 17,000 -50 Descending Jacksonville Center
Thu 11:00:25 AM 31.9117 -81.1058 21° North 170 196 17,000  Level Jacksonville Center
Thu 11:01:25 AM 31.9553 -81.0781 28° Northeast 170 196 17,000  Level Jacksonville Center
Thu 11:02:25 AM 32.0031 -81.0575 20° North 177 204 17,000  Level Jacksonville Center
Thu 11:03:26 AM 32.0506 -81.0369 20° North 177 204 17,000  Level Jacksonville Center
Thu 11:04:26 AM 32.0900 -81.0142 26° Northeast 172 198 17,000  Level Jacksonville Center
Thu 11:05:25 AM 32.1417 -80.9886 23° Northeast 177 204 17,000  Level Jacksonville Center
Thu 11:06:25 AM 32.1894 -80.9681 20° North 172 198 17,000  Level Jacksonville Center
Thu 11:07:25 AM 32.2331 -80.9450 24° Northeast 172 198 17,000  Level Jacksonville Center
Thu 11:08:25 AM 32.2828 -80.9217 22° Northeast 172 198 17,000  Level Jacksonville Center
Thu 11:09:26 AM 32.3261 -80.8986 24° Northeast 177 204 17,000  Level Jacksonville Center
Thu 11:10:25 AM 32.3758 -80.8731 23° Northeast 172 198 17,000  Level Jacksonville Center
Thu 11:11:25 AM 32.4214 -80.8500 23° Northeast 172 198 17,000  Level Jacksonville Center
Thu 11:12:26 AM 32.4692 -80.8267 22° Northeast 172 198 17,000  Level Jacksonville Center
Thu 11:13:26 AM 32.5167 -80.8033 22° Northeast 172 198 17,000  Level Jacksonville Center
Thu 11:14:25 AM 32.5622 -80.7803 23° Northeast 172 198 17,000  Level Jacksonville Center
Thu 11:15:26 AM 32.6078 -80.7569 23° Northeast 172 198 17,000  Level Jacksonville Center
Thu 11:16:26 AM 32.6533 -80.7336 23° Northeast 177 204 17,000  Level Jacksonville Center
Thu 11:17:25 AM 32.7008 -80.7103 22° Northeast 177 204 17,000  Level Jacksonville Center
Thu 11:18:26 AM 32.7464 -80.6869 23° Northeast 177 204 17,000  Level Jacksonville Center
Thu 11:19:25 AM 32.7942 -80.6636 22° Northeast 177 204 17,000  Level Jacksonville Center
Thu 11:20:25 AM 32.8417 -80.6400 23° Northeast 177 204 17,000  Level Jacksonville Center
Thu 11:21:26 AM 32.8892 -80.6142 25° Northeast 177 204 17,000  Level Jacksonville Center
Thu 11:22:25 AM 32.9306 -80.5933 23° Northeast 172 198 17,000  Level Jacksonville Center
Thu 11:23:25 AM 32.9761 -80.5722 21° North 172 198 17,000  Level Jacksonville Center
Thu 11:24:26 AM 33.0236 -80.5489 22° Northeast 172 198 17,000  Level Jacksonville Center
Thu 11:25:25 AM 33.0692 -80.5228 26° Northeast 172 198 17,000  Level Jacksonville Center
Thu 11:26:25 AM 33.1167 -80.5017 20° North 172 198 17,000  Level Jacksonville Center
Thu 11:27:25 AM 33.1642 -80.4758 24° Northeast 172 198 17,000  Level Jacksonville Center
Thu 11:28:26 AM 33.2097 -80.4522 23° Northeast 172 198 17,000  Level Jacksonville Center
Thu 11:29:25 AM 33.2594 -80.4308 20° North 172 198 17,000  Level Jacksonville Center
Thu 11:30:25 AM 33.3069 -80.4047 25° Northeast 172 198 17,000  Level Jacksonville Center
Thu 11:31:26 AM 33.3522 -80.3811 24° Northeast 172 198 17,000  Level Jacksonville Center
Thu 11:32:25 AM 33.4019 -80.3572 22° Northeast 177 204 17,000  Level Jacksonville Center
Thu 11:33:26 AM 33.4494 -80.3311 25° Northeast 177 204 17,000  Level Jacksonville Center
Thu 11:34:25 AM 33.4969 -80.3072 23° Northeast 177 204 17,000  Level Jacksonville Center
Thu 11:35:25 AM 33.5444 -80.2808 25° Northeast 177 204 17,000  Level Jacksonville Center
Thu 11:36:26 AM 33.5919 -80.2569 23° Northeast 177 204 17,000  Level Jacksonville Center
Thu 11:37:26 AM 33.6414 -80.2333 22° Northeast 182 209 17,000  Level Jacksonville Center
Thu 11:38:25 AM 33.6889 -80.2092 23° Northeast 182 209 17,000  Level Jacksonville Center
Thu 11:39:25 AM 33.7364 -80.1828 25° Northeast 182 209 17,000  Level Jacksonville Center
Thu 11:40:25 AM 33.7839 -80.1589 23° Northeast 182 209 17,000  Level Jacksonville Center
Thu 11:41:26 AM 33.8314 -80.1325 25° Northeast 182 209 17,000  Level Jacksonville Center
Thu 11:42:25 AM 33.8786 -80.1083 23° Northeast 182 209 17,000  Level Jacksonville Center
Thu 11:43:25 AM 33.9261 -80.0819 25° Northeast 182 209 17,000 -198 Level Jacksonville Center
Thu 11:44:26 AM 33.9756 -80.0553 24° Northeast 188 216 16,600 -595 Descending Jacksonville Center
Thu 11:45:26 AM 34.0314 -80.0308 20° North 194 223 15,800 -807 Descending Jacksonville Center
Thu 11:46:25 AM 34.0872 -80.0042 22° Northeast 199 229 15,000 -857 Descending Jacksonville Center
Thu 11:47:25 AM 34.1428 -79.9772 22° Northeast 209 241 14,100 -850 Descending Jacksonville Center
Thu 11:48:25 AM 34.2006 -79.9425 26° Northeast 209 241 13,300 -893 Descending Jacksonville Center
Thu 11:49:26 AM 34.2561 -79.9131 24° Northeast 209 241 12,300 -1,000 Descending Jacksonville Center
Thu 11:50:25 AM 34.3181 -79.8833 22° Northeast 215 247 11,300 -950 Descending Jacksonville Center
Thu 11:51:26 AM 34.3778 -79.8511 24° Northeast 220 253 10,400 -942 Descending Jacksonville Center
Thu 11:52:26 AM 34.4353 -79.8161 27° Northeast 225 259 9,400 -700 Descending Jacksonville Center
Thu 11:53:26 AM 34.4908 -79.7864 24° Northeast 225 259 9,000 -600 Descending Jacksonville Center
Thu 11:54:26 AM 34.5464 -79.7592 22° Northeast 225 259 8,200 -800 Descending Jacksonville Center
Thu 11:56:00 AM 34.6140 -79.7166 27° Northeast  Level FlightAware Approximate
Thu 12:03:00 PM 34.9246 -79.5461 22° Northeast  Level FlightAware Approximate
Thu 12:04:00 PM 34.9692 -79.5224 25° Northeast  Level FlightAware Approximate
Thu 12:05:00 PM 35.0132 -79.4973 25° Northeast  Level FlightAware Approximate
Thu 12:06:00 PM 35.0572 -79.4722 25° Northeast  Level FlightAware Approximate
Thu 12:07:00 PM 35.1013 -79.4470 25° Northeast  Level FlightAware Approximate
Thu 12:08:00 PM 35.1453 -79.4218 25° Northeast  Level FlightAware Approximate
Thu 12:09:00 PM 35.1897 -79.3979 15° North  Level FlightAware Approximate

Login

Don't have an account? Register now (free) for customized features, flight alerts, and more!